Time;durP1;ratioP1;P1;durP2;ratioP2;P2;SDS_P1;SDS_P2;PMS_P1;PMS_P2;Temp;Humidity;BMP_temperature;BMP_pressure;BME280_temperature;BME280_humidity;BME280_pressure;Samples;Min_cycle;Max_cycle;Signal;HPM_P1;HPM_P2
2021/10/23 00:00:17;;;;;;;21.40;11.00;;;;;;;;;;2088608;28;20127;-43
2021/10/23 00:01:19;;;;;;;16.53;9.33;;;;;;;;;;2089430;28;20053;-42
2021/10/23 00:02:20;;;;;;;17.17;9.30;;;;;;;;;;2089616;28;20115;-42
2021/10/23 00:03:21;;;;;;;17.70;9.33;;;;;;;;;;2086815;28;20494;-42
2021/10/23 00:04:22;;;;;;;18.75;10.02;;;;;;;;;;2090005;28;20472;-42
2021/10/23 00:05:23;;;;;;;15.37;9.23;;;;;;;;;;2087892;28;20041;-42
2021/10/23 00:06:24;;;;;;;17.40;9.50;;;;;;;;;;2089800;28;20076;-42
2021/10/23 00:07:25;;;;;;;19.30;8.90;;;;;;;;;;2090003;28;20268;-43
2021/10/23 00:08:26;;;;;;;18.45;9.65;;;;;;;;;;2087822;28;20041;-42
2021/10/23 00:09:27;;;;;;;17.53;8.53;;;;;;;;;;2090092;28;20510;-42
2021/10/23 00:10:28;;;;;;;17.83;8.82;;;;;;;;;;2089897;28;20045;-43
2021/10/23 00:11:29;;;;;;;18.97;8.73;;;;;;;;;;2089009;28;20050;-42
2021/10/23 00:12:30;;;;;;;20.85;9.07;;;;;;;;;;2090037;28;20072;-43
2021/10/23 00:13:31;;;;;;;19.65;8.77;;;;;;;;;;2089581;28;20121;-42
2021/10/23 00:14:32;;;;;;;15.27;7.78;;;;;;;;;;2087316;28;20083;-42
2021/10/23 00:15:33;;;;;;;19.95;8.40;;;;;;;;;;2090203;28;20049;-43
2021/10/23 00:16:53;;;;;;;19.30;8.15;;;;;;;;;;2089330;28;20052;-42
2021/10/23 00:17:55;;;;;;;15.68;8.93;;;;;;;;;;2088754;28;20131;-42
2021/10/23 00:18:56;;;;;;;18.15;8.95;;;;;;;;;;2090042;28;20059;-42
2021/10/23 00:20:00;;;;;;;16.67;9.43;;;;;;;;;;2087070;28;20403;-42
2021/10/23 00:21:01;;;;;;;18.83;8.40;;;;;;;;;;2089052;28;20059;-42
2021/10/23 00:22:03;;;;;;;13.20;7.97;;;;;;;;;;2089535;28;20068;-42
2021/10/23 00:23:04;;;;;;;15.05;7.93;;;;;;;;;;2087647;28;20132;-42
2021/10/23 00:24:05;;;;;;;12.68;7.20;;;;;;;;;;2089721;28;20548;-42
2021/10/23 00:25:06;;;;;;;13.57;7.40;;;;;;;;;;2090203;28;20311;-42
2021/10/23 00:26:08;;;;;;;15.73;8.32;;;;;;;;;;2088881;28;20158;-42
2021/10/23 00:27:09;;;;;;;15.52;8.48;;;;;;;;;;2090034;28;20080;-42
2021/10/23 00:28:10;;;;;;;13.87;7.97;;;;;;;;;;2089904;28;20051;-42
2021/10/23 00:29:11;;;;;;;15.27;7.93;;;;;;;;;;2087492;28;20063;-42
2021/10/23 00:30:12;;;;;;;16.50;8.98;;;;;;;;;;2089837;28;20063;-42
2021/10/23 00:31:14;;;;;;;14.93;8.02;;;;;;;;;;2089497;28;20049;-43
2021/10/23 00:32:15;;;;;;;17.77;8.18;;;;;;;;;;2087894;28;20052;-43
2021/10/23 00:33:16;;;;;;;15.63;7.88;;;;;;;;;;2089899;28;20129;-42
2021/10/23 00:34:20;;;;;;;16.67;7.88;;;;;;;;;;2090924;28;20067;-42
2021/10/23 00:35:21;;;;;;;13.30;6.95;;;;;;;;;;2086803;28;20044;-42
2021/10/23 00:36:22;;;;;;;16.38;8.25;;;;;;;;;;2089277;28;20080;-42
2021/10/23 00:37:23;;;;;;;14.25;7.40;;;;;;;;;;2088515;28;20128;-42
2021/10/23 00:38:24;;;;;;;17.83;7.88;;;;;;;;;;2087964;28;20498;-43
2021/10/23 00:39:25;;;;;;;13.40;7.93;;;;;;;;;;2089923;28;20049;-42
2021/10/23 00:40:26;;;;;;;16.40;7.70;;;;;;;;;;2089084;28;20143;-42
2021/10/23 00:41:27;;;;;;;14.75;8.40;;;;;;;;;;2088426;28;20132;-42
2021/10/23 00:42:28;;;;;;;14.43;8.15;;;;;;;;;;2089693;28;20040;-42
2021/10/23 00:43:29;;;;;;;13.75;8.40;;;;;;;;;;2090319;28;20127;-42
2021/10/23 00:44:31;;;;;;;19.63;9.30;;;;;;;;;;2088376;28;20041;-42
2021/10/23 00:45:32;;;;;;;19.70;10.35;;;;;;;;;;2089931;28;20128;-42
2021/10/23 00:46:33;;;;;;;20.00;8.98;;;;;;;;;;2090157;28;20636;-42
2021/10/23 00:47:34;;;;;;;18.52;9.88;;;;;;;;;;2087373;28;20052;-42
2021/10/23 00:48:36;;;;;;;18.13;10.30;;;;;;;;;;2089885;28;20060;-42
2021/10/23 00:49:38;;;;;;;16.58;9.27;;;;;;;;;;2087691;28;20045;-42
2021/10/23 00:50:39;;;;;;;24.25;10.25;;;;;;;;;;2089521;28;20047;-42
2021/10/23 00:51:40;;;;;;;19.50;10.18;;;;;;;;;;2089926;28;20044;-42
2021/10/23 00:52:42;;;;;;;16.95;9.90;;;;;;;;;;2087381;28;20155;-42
2021/10/23 00:53:44;;;;;;;20.30;10.30;;;;;;;;;;2089820;28;20045;-42
2021/10/23 00:54:45;;;;;;;21.23;9.65;;;;;;;;;;2089837;28;20044;-42
2021/10/23 00:55:46;;;;;;;20.77;10.10;;;;;;;;;;2087292;28;20135;-43
2021/10/23 00:56:47;;;;;;;18.13;10.23;;;;;;;;;;2089696;28;20055;-43
2021/10/23 00:57:48;;;;;;;22.05;9.55;;;;;;;;;;2089121;28;20079;-43
2021/10/23 00:58:50;;;;;;;15.02;9.05;;;;;;;;;;2087383;28;20448;-43
2021/10/23 00:59:51;;;;;;;19.00;9.45;;;;;;;;;;2089758;28;20463;-43
2021/10/23 01:00:52;;;;;;;19.13;9.15;;;;;;;;;;2089252;28;20056;-43
2021/10/23 01:01:53;;;;;;;17.25;8.98;;;;;;;;;;2087608;28;20049;-43
2021/10/23 01:02:54;;;;;;;16.65;10.02;;;;;;;;;;2088187;28;20076;-43
2021/10/23 01:03:55;;;;;;;19.08;10.23;;;;;;;;;;2089118;28;20131;-43
2021/10/23 01:04:57;;;;;;;15.57;9.27;;;;;;;;;;2083319;28;20132;-43
2021/10/23 01:05:57;;;;;;;20.93;10.27;;;;;;;;;;2081585;28;20128;-43
2021/10/23 01:06:59;;;;;;;16.27;9.38;;;;;;;;;;2085511;28;20346;-43
2021/10/23 01:07:59;;;;;;;17.63;9.77;;;;;;;;;;2088152;28;20136;-42
2021/10/23 01:09:01;;;;;;;18.58;9.52;;;;;;;;;;2089752;28;20056;-43
2021/10/23 01:10:03;;;;;;;16.23;8.60;;;;;;;;;;2089910;28;20049;-43
2021/10/23 01:11:04;;;;;;;17.30;9.07;;;;;;;;;;2087621;28;20084;-43
2021/10/23 01:12:06;;;;;;;16.40;8.63;;;;;;;;;;2089777;28;20398;-43
2021/10/23 01:13:12;;;;;;;15.05;8.00;;;;;;;;;;2087258;28;20380;-43
2021/10/23 01:14:13;;;;;;;20.02;8.18;;;;;;;;;;2089511;28;20056;-43
2021/10/23 01:15:15;;;;;;;14.55;7.93;;;;;;;;;;2089582;28;20482;-43
2021/10/23 01:16:16;;;;;;;14.50;8.15;;;;;;;;;;2088705;28;20132;-43
2021/10/23 01:17:21;;;;;;;16.05;8.10;;;;;;;;;;2089515;28;20052;-43
2021/10/23 01:18:22;;;;;;;14.57;8.30;;;;;;;;;;2088788;28;20075;-43
2021/10/23 01:19:24;;;;;;;16.65;8.18;;;;;;;;;;2088996;28;20084;-43
2021/10/23 01:20:25;;;;;;;;;;;;;;;;;;2090216;28;20057;-45
2021/10/23 01:21:26;;;;;;;15.90;8.32;;;;;;;;;;2089145;28;19924;-46
2021/10/23 01:22:28;;;;;;;15.63;8.70;;;;;;;;;;2086384;28;20494;-45
2021/10/23 01:23:29;;;;;;;14.50;8.20;;;;;;;;;;2089645;28;20132;-45
2021/10/23 01:24:30;;;;;;;13.65;8.18;;;;;;;;;;2088784;28;20440;-45
2021/10/23 01:25:32;;;;;;;15.27;8.65;;;;;;;;;;2087746;28;20047;-46
2021/10/23 01:26:33;;;;;;;17.17;8.35;;;;;;;;;;2089486;28;20053;-45
2021/10/23 01:27:34;;;;;;;14.40;7.25;;;;;;;;;;2090183;28;20087;-44
2021/10/23 01:28:35;;;;;;;12.80;8.02;;;;;;;;;;2087263;28;20128;-44
2021/10/23 01:29:36;;;;;;;15.73;8.07;;;;;;;;;;2089472;28;20041;-45
2021/10/23 01:30:37;;;;;;;14.80;8.25;;;;;;;;;;2090007;28;20132;-44
2021/10/23 01:31:38;;;;;;;17.10;8.00;;;;;;;;;;2088032;28;20078;-44
2021/10/23 01:32:39;;;;;;;13.63;8.32;;;;;;;;;;2089576;28;20132;-45
2021/10/23 01:33:40;;;;;;;13.68;7.82;;;;;;;;;;2088268;28;20132;-46
2021/10/23 01:34:41;;;;;;;16.90;7.65;;;;;;;;;;2088704;28;20124;-45
2021/10/23 01:35:43;;;;;;;16.20;8.60;;;;;;;;;;2089547;28;20041;-45
2021/10/23 01:36:46;;;;;;;11.02;7.43;;;;;;;;;;2088459;28;20079;-45
2021/10/23 01:37:47;;;;;;;10.95;7.50;;;;;;;;;;2087509;28;20045;-45
2021/10/23 01:38:48;;;;;;;14.45;7.85;;;;;;;;;;2089632;28;20055;-45
2021/10/23 01:39:49;;;;;;;16.08;8.50;;;;;;;;;;2087261;28;20045;-46
2021/10/23 01:40:51;;;;;;;15.10;7.93;;;;;;;;;;2088272;28;20133;-46
2021/10/23 01:41:52;;;;;;;14.90;7.75;;;;;;;;;;2089496;28;20102;-45
2021/10/23 01:42:54;;;;;;;16.65;7.70;;;;;;;;;;2087246;28;20121;-45
2021/10/23 01:43:54;;;;;;;15.30;8.10;;;;;;;;;;2089385;28;20080;-46
2021/10/23 01:44:56;;;;;;;14.47;7.60;;;;;;;;;;2089359;28;20053;-45
2021/10/23 01:45:56;;;;;;;12.90;8.02;;;;;;;;;;2088507;28;20045;-44
2021/10/23 01:46:58;;;;;;;12.13;7.20;;;;;;;;;;2089315;28;20048;-46
2021/10/23 01:47:59;;;;;;;13.82;7.07;;;;;;;;;;2089579;28;20179;-46
2021/10/23 01:49:01;;;;;;;12.15;7.53;;;;;;;;;;2088201;28;20407;-46
2021/10/23 01:50:02;;;;;;;14.63;6.93;;;;;;;;;;2089372;28;20565;-45
2021/10/23 01:51:04;;;;;;;16.10;7.30;;;;;;;;;;2088896;28;20135;-45
2021/10/23 01:52:06;;;;;;;14.38;7.18;;;;;;;;;;2087430;28;20132;-45
2021/10/23 01:53:06;;;;;;;9.32;6.85;;;;;;;;;;2089353;28;20156;-45
2021/10/23 01:54:09;;;;;;;15.60;7.50;;;;;;;;;;2090132;28;20078;-45
2021/10/23 01:55:10;;;;;;;12.80;7.47;;;;;;;;;;2086758;28;20131;-45
2021/10/23 01:56:11;;;;;;;15.40;7.65;;;;;;;;;;2089549;28;20110;-46
2021/10/23 01:57:12;;;;;;;15.18;7.03;;;;;;;;;;2088647;28;20656;-44
2021/10/23 01:58:14;;;;;;;13.63;7.20;;;;;;;;;;2087594;28;20053;-45
2021/10/23 01:59:14;;;;;;;14.63;7.60;;;;;;;;;;2089413;28;20124;-49
2021/10/23 02:00:17;;;;;;;13.07;7.55;;;;;;;;;;2088551;28;20474;-46
2021/10/23 02:01:18;;;;;;;13.25;7.28;;;;;;;;;;2087751;28;20131;-45
2021/10/23 02:02:19;;;;;;;15.48;7.18;;;;;;;;;;2089370;28;20059;-46
2021/10/23 02:03:20;;;;;;;13.00;7.18;;;;;;;;;;2086593;28;20041;-45
2021/10/23 02:04:21;;;;;;;12.77;6.60;;;;;;;;;;2088387;28;20078;-45
2021/10/23 02:05:22;;;;;;;16.17;7.72;;;;;;;;;;2089305;28;20048;-46
2021/10/23 02:06:23;;;;;;;15.13;7.23;;;;;;;;;;2088423;28;20052;-45
2021/10/23 02:07:25;;;;;;;15.88;7.30;;;;;;;;;;2081861;28;20589;-45
2021/10/23 02:08:27;;;;;;;14.75;7.90;;;;;;;;;;2081075;28;20555;-47
2021/10/23 02:09:28;;;;;;;11.40;6.93;;;;;;;;;;2082629;28;20048;-46
2021/10/23 02:10:29;;;;;;;14.95;7.75;;;;;;;;;;2088849;28;20409;-47
2021/10/23 02:11:30;;;;;;;15.30;7.32;;;;;;;;;;2089326;28;20128;-47
2021/10/23 02:12:31;;;;;;;12.90;7.37;;;;;;;;;;2089120;28;20397;-46
2021/10/23 02:13:32;;;;;;;18.63;7.72;;;;;;;;;;2088723;28;20045;-46
2021/10/23 02:14:33;;;;;;;18.67;8.23;;;;;;;;;;2088864;28;20585;-45
2021/10/23 02:15:34;;;;;;;16.05;7.57;;;;;;;;;;2087120;28;20049;-46
2021/10/23 02:16:35;;;;;;;15.47;7.73;;;;;;;;;;2081186;28;20045;-46
2021/10/23 02:17:37;;;;;;;12.98;7.97;;;;;;;;;;2080885;28;20045;-48
2021/10/23 02:18:38;;;;;;;16.60;8.43;;;;;;;;;;2086193;28;20080;-45
2021/10/23 02:19:39;;;;;;;13.40;7.80;;;;;;;;;;2089243;28;20051;-46
2021/10/23 02:20:40;;;;;;;13.77;7.83;;;;;;;;;;2089167;28;20136;-47
2021/10/23 02:21:41;;;;;;;17.02;7.85;;;;;;;;;;2086035;28;20115;-45
2021/10/23 02:22:43;;;;;;;12.25;7.78;;;;;;;;;;2089270;28;20098;-46
2021/10/23 02:23:44;;;;;;;;;;;;;;;;;;2089092;28;20128;-45
2021/10/23 02:24:45;;;;;;;12.95;7.53;;;;;;;;;;2087309;28;19920;-45
2021/10/23 02:25:46;;;;;;;16.88;8.30;;;;;;;;;;2089156;28;20041;-45
2021/10/23 02:26:47;;;;;;;18.67;8.38;;;;;;;;;;2089808;28;20045;-45
2021/10/23 02:27:48;;;;;;;19.60;8.13;;;;;;;;;;2087388;28;20128;-45
2021/10/23 02:28:49;;;;;;;13.10;7.50;;;;;;;;;;2089280;28;20469;-44
2021/10/23 02:29:50;;;;;;;14.68;7.82;;;;;;;;;;2088510;28;20041;-45
2021/10/23 02:30:51;;;;;;;14.90;7.53;;;;;;;;;;2087547;28;20045;-45
2021/10/23 02:31:52;;;;;;;13.02;8.02;;;;;;;;;;2089166;28;20187;-45
2021/10/23 02:32:53;;;;;;;13.57;8.38;;;;;;;;;;2088010;28;20056;-45
2021/10/23 02:33:55;;;;;;;12.30;7.40;;;;;;;;;;2087011;28;20044;-45
2021/10/23 02:34:55;;;;;;;15.50;8.23;;;;;;;;;;2089070;28;20140;-47
2021/10/23 02:35:57;;;;;;;13.97;7.93;;;;;;;;;;2088257;28;20053;-46
2021/10/23 02:36:57;;;;;;;12.68;7.45;;;;;;;;;;2087810;28;20041;-46
2021/10/23 02:37:59;;;;;;;16.33;8.10;;;;;;;;;;2089185;28;20055;-45
2021/10/23 02:39:00;;;;;;;15.35;8.45;;;;;;;;;;2087375;28;20128;-45
2021/10/23 02:40:01;;;;;;;13.55;7.28;;;;;;;;;;2088801;28;20103;-45
2021/10/23 02:41:02;;;;;;;11.73;8.20;;;;;;;;;;2089076;28;20124;-45
2021/10/23 02:42:04;;;;;;;13.35;7.10;;;;;;;;;;2086963;28;20053;-45
2021/10/23 02:43:05;;;;;;;11.90;6.43;;;;;;;;;;2088922;28;20128;-46
2021/10/23 02:44:06;;;;;;;15.80;7.82;;;;;;;;;;2089265;28;20052;-46
2021/10/23 02:45:08;;;;;;;14.38;6.50;;;;;;;;;;2086807;28;20045;-44
2021/10/23 02:46:09;;;;;;;14.93;7.38;;;;;;;;;;2088834;28;20129;-45
2021/10/23 02:47:10;;;;;;;14.10;7.43;;;;;;;;;;2089228;28;20048;-45
2021/10/23 02:48:11;;;;;;;15.38;6.60;;;;;;;;;;2086738;28;20046;-46
2021/10/23 02:49:12;;;;;;;16.08;7.82;;;;;;;;;;2089208;28;20132;-46
2021/10/23 02:50:13;;;;;;;15.50;7.05;;;;;;;;;;2089054;28;20057;-46
2021/10/23 02:51:14;;;;;;;16.20;7.82;;;;;;;;;;2086530;28;20113;-45
2021/10/23 02:52:15;;;;;;;11.70;7.28;;;;;;;;;;2089028;28;20106;-44
2021/10/23 02:53:16;;;;;;;14.10;7.57;;;;;;;;;;2089164;28;20128;-45
2021/10/23 02:54:17;;;;;;;13.50;7.45;;;;;;;;;;2086634;28;20286;-46
2021/10/23 02:55:18;;;;;;;14.45;8.20;;;;;;;;;;2089146;28;20045;-46
2021/10/23 02:56:19;;;;;;;13.13;7.68;;;;;;;;;;2088737;28;20126;-46
2021/10/23 02:57:20;;;;;;;17.83;8.23;;;;;;;;;;2087165;28;20049;-46
2021/10/23 02:58:21;;;;;;;13.77;7.32;;;;;;;;;;2088973;28;20053;-46
2021/10/23 02:59:22;;;;;;;14.05;7.60;;;;;;;;;;2089704;28;20136;-46
2021/10/23 03:00:23;;;;;;;11.73;6.80;;;;;;;;;;2087384;28;20088;-46
2021/10/23 03:01:24;;;;;;;14.20;7.38;;;;;;;;;;2089214;28;20056;-45
2021/10/23 03:02:26;;;;;;;12.07;7.65;;;;;;;;;;2088411;28;20106;-45
2021/10/23 03:03:27;;;;;;;14.27;7.40;;;;;;;;;;2085897;28;20049;-45
2021/10/23 03:04:28;;;;;;;14.38;7.22;;;;;;;;;;2089021;28;20453;-46
2021/10/23 03:05:29;;;;;;;12.10;7.18;;;;;;;;;;2087949;28;20492;-46
2021/10/23 03:06:30;;;;;;;13.45;7.18;;;;;;;;;;2087568;28;20454;-46
2021/10/23 03:07:31;;;;;;;15.27;7.80;;;;;;;;;;2088898;28;20059;-46
2021/10/23 03:08:33;;;;;;;14.07;8.10;;;;;;;;;;2089322;28;20143;-46
2021/10/23 03:09:34;;;;;;;14.10;7.57;;;;;;;;;;2087402;28;20140;-45
2021/10/23 03:10:35;;;;;;;15.32;7.32;;;;;;;;;;2088596;28;20079;-45
2021/10/23 03:11:36;;;;;;;15.13;7.55;;;;;;;;;;2089590;28;20410;-46
2021/10/23 03:12:37;;;;;;;18.73;7.90;;;;;;;;;;2087529;28;20071;-45
2021/10/23 03:13:38;;;;;;;14.40;7.70;;;;;;;;;;2089117;28;20053;-45
2021/10/23 03:14:39;;;;;;;13.48;7.50;;;;;;;;;;2086730;28;20116;-45
2021/10/23 03:15:40;;;;;;;14.70;8.45;;;;;;;;;;2088855;28;20068;-45
2021/10/23 03:16:41;;;;;;;15.35;8.18;;;;;;;;;;2089199;28;20045;-46
2021/10/23 03:17:42;;;;;;;15.70;8.23;;;;;;;;;;2089113;28;20375;-46
2021/10/23 03:18:43;;;;;;;20.00;9.20;;;;;;;;;;2087780;28;20059;-45
2021/10/23 03:19:44;;;;;;;16.00;8.60;;;;;;;;;;2088944;28;20045;-46
2021/10/23 03:20:45;;;;;;;14.18;8.30;;;;;;;;;;2089036;28;20476;-45
2021/10/23 03:21:47;;;;;;;13.43;8.07;;;;;;;;;;2089569;28;20044;-46
2021/10/23 03:22:48;;;;;;;;;;;;;;;;;;2091025;28;20128;-46
2021/10/23 03:23:50;;;;;;;17.05;8.18;;;;;;;;;;2087833;28;19925;-44
2021/10/23 03:24:50;;;;;;;16.13;8.02;;;;;;;;;;2090298;28;20135;-45
2021/10/23 03:25:52;;;;;;;21.38;9.23;;;;;;;;;;2090437;28;20048;-45
2021/10/23 03:26:52;;;;;;;15.40;8.23;;;;;;;;;;2087810;28;20494;-45
2021/10/23 03:27:54;;;;;;;17.40;9.02;;;;;;;;;;2090508;28;20044;-45
2021/10/23 03:28:55;;;;;;;16.48;8.23;;;;;;;;;;2089760;28;20086;-45
2021/10/23 03:29:56;;;;;;;17.98;9.48;;;;;;;;;;2088433;28;20491;-45
2021/10/23 03:30:57;;;;;;;16.00;8.02;;;;;;;;;;2090283;28;20386;-45
2021/10/23 03:31:58;;;;;;;12.45;7.20;;;;;;;;;;2089945;28;20060;-45
2021/10/23 03:32:59;;;;;;;16.45;9.23;;;;;;;;;;2088380;28;20135;-46
2021/10/23 03:34:00;;;;;;;17.17;7.87;;;;;;;;;;2090454;28;20048;-46
2021/10/23 03:35:01;;;;;;;19.92;10.18;;;;;;;;;;2089743;28;20118;-46
2021/10/23 03:36:02;;;;;;;15.43;9.45;;;;;;;;;;2088473;28;20077;-46
2021/10/23 03:37:03;;;;;;;14.82;9.30;;;;;;;;;;2090339;28;20073;-47
2021/10/23 03:38:05;;;;;;;17.25;9.50;;;;;;;;;;2089516;28;20053;-45
2021/10/23 03:39:06;;;;;;;25.08;9.90;;;;;;;;;;2088595;28;20128;-45
2021/10/23 03:40:08;;;;;;;20.17;9.95;;;;;;;;;;2090154;28;20466;-46
2021/10/23 03:41:09;;;;;;;18.33;9.93;;;;;;;;;;2090806;28;20132;-46
2021/10/23 03:42:10;;;;;;;18.73;10.13;;;;;;;;;;2088736;28;20186;-45
2021/10/23 03:43:11;;;;;;;18.38;10.40;;;;;;;;;;2090305;28;20078;-45
2021/10/23 03:44:12;;;;;;;15.20;8.55;;;;;;;;;;2088810;28;20049;-45
2021/10/23 03:45:13;;;;;;;19.83;10.32;;;;;;;;;;2089177;28;20053;-46
2021/10/23 03:46:14;;;;;;;15.63;8.70;;;;;;;;;;2090267;28;20106;-46
2021/10/23 03:47:16;;;;;;;26.93;8.67;;;;;;;;;;2090608;28;20448;-45
2021/10/23 03:48:17;;;;;;;13.50;7.55;;;;;;;;;;2089015;28;20131;-47
2021/10/23 03:49:18;;;;;;;15.43;7.20;;;;;;;;;;2090287;28;20049;-47
2021/10/23 03:50:19;;;;;;;12.27;7.13;;;;;;;;;;2090394;28;20064;-45
2021/10/23 03:51:20;;;;;;;13.73;7.38;;;;;;;;;;2088855;28;20128;-45
2021/10/23 03:52:21;;;;;;;17.80;7.93;;;;;;;;;;2090197;28;20044;-44
2021/10/23 03:53:22;;;;;;;14.77;7.75;;;;;;;;;;2087790;28;20132;-44
2021/10/23 03:54:24;;;;;;;12.95;7.70;;;;;;;;;;2090205;28;20048;-46
2021/10/23 03:55:25;;;;;;;14.00;7.20;;;;;;;;;;2090133;28;20136;-45
2021/10/23 03:56:26;;;;;;;14.43;7.13;;;;;;;;;;2087984;28;20038;-45
2021/10/23 03:57:27;;;;;;;14.48;7.55;;;;;;;;;;2081922;28;20056;-46
2021/10/23 03:58:28;;;;;;;11.57;6.47;;;;;;;;;;2081816;28;20585;-44
2021/10/23 03:59:30;;;;;;;16.08;7.25;;;;;;;;;;2086989;28;20825;-47
2021/10/23 04:00:31;;;;;;;14.27;6.85;;;;;;;;;;2090145;28;20068;-48
2021/10/23 04:01:33;;;;;;;14.27;6.97;;;;;;;;;;2090192;28;20107;-45
2021/10/23 04:02:34;;;;;;;12.52;6.60;;;;;;;;;;2086915;28;20053;-45
2021/10/23 04:03:35;;;;;;;15.77;6.57;;;;;;;;;;2088735;28;20048;-46
2021/10/23 04:04:36;;;;;;;14.10;7.18;;;;;;;;;;2089554;28;20127;-46
2021/10/23 04:05:37;;;;;;;12.60;6.63;;;;;;;;;;2088172;28;20123;-45
2021/10/23 04:06:38;;;;;;;14.60;6.78;;;;;;;;;;2089913;28;20067;-46
2021/10/23 04:07:39;;;;;;;11.70;6.22;;;;;;;;;;2089515;28;20479;-45
2021/10/23 04:08:40;;;;;;;15.35;7.03;;;;;;;;;;2088497;28;20186;-45
2021/10/23 04:09:42;;;;;;;11.20;6.80;;;;;;;;;;2090051;28;20045;-45
2021/10/23 04:10:43;;;;;;;16.95;6.93;;;;;;;;;;2087844;28;20512;-46
2021/10/23 04:11:45;;;;;;;15.37;7.40;;;;;;;;;;2088692;28;20040;-45
2021/10/23 04:12:46;;;;;;;15.43;7.03;;;;;;;;;;2090104;28;20132;-45
2021/10/23 04:13:47;;;;;;;11.93;6.43;;;;;;;;;;2086461;28;20312;-47
2021/10/23 04:14:48;;;;;;;13.18;7.65;;;;;;;;;;2089885;28;20130;-46
2021/10/23 04:15:49;;;;;;;14.43;7.27;;;;;;;;;;2090014;28;20041;-47
2021/10/23 04:16:50;;;;;;;10.30;6.15;;;;;;;;;;2089911;28;20047;-46
2021/10/23 04:17:55;;;;;;;13.48;6.65;;;;;;;;;;2089595;28;20045;-46
2021/10/23 04:18:56;;;;;;;17.75;7.65;;;;;;;;;;2090115;28;20486;-46
2021/10/23 04:19:58;;;;;;;16.83;7.17;;;;;;;;;;2087505;28;20621;-46
2021/10/23 04:20:58;;;;;;;15.85;7.28;;;;;;;;;;2090051;28;20290;-45
2021/10/23 04:22:00;;;;;;;15.27;7.80;;;;;;;;;;2090015;28;20045;-46
2021/10/23 04:23:00;;;;;;;20.95;6.78;;;;;;;;;;2087529;28;20136;-46
2021/10/23 04:24:01;;;;;;;18.55;6.50;;;;;;;;;;2090104;28;20061;-46
2021/10/23 04:25:03;;;;;;;21.00;7.07;;;;;;;;;;2089540;28;20448;-46
2021/10/23 04:26:04;;;;;;;14.20;6.97;;;;;;;;;;2088971;28;20286;-45
2021/10/23 04:27:05;;;;;;;14.43;7.00;;;;;;;;;;2089901;28;20041;-47
2021/10/23 04:28:06;;;;;;;13.60;6.70;;;;;;;;;;2090492;28;20095;-47
2021/10/23 04:29:07;;;;;;;12.25;6.10;;;;;;;;;;2088112;28;20557;-46
2021/10/23 04:30:09;;;;;;;11.00;6.50;;;;;;;;;;2090101;28;20076;-47
2021/10/23 04:31:09;;;;;;;12.93;6.53;;;;;;;;;;2089183;28;20407;-45
2021/10/23 04:32:11;;;;;;;17.90;7.35;;;;;;;;;;2087740;28;20087;-46
2021/10/23 04:33:11;;;;;;;14.85;6.55;;;;;;;;;;2089310;28;20510;-46
2021/10/23 04:34:13;;;;;;;10.20;5.75;;;;;;;;;;2089183;28;20051;-45
2021/10/23 04:35:13;;;;;;;12.05;6.38;;;;;;;;;;2087533;28;20127;-45
2021/10/23 04:36:15;;;;;;;9.18;5.68;;;;;;;;;;2089825;28;20053;-46
2021/10/23 04:37:15;;;;;;;10.07;6.22;;;;;;;;;;2090294;28;20154;-47
2021/10/23 04:38:17;;;;;;;11.60;5.93;;;;;;;;;;2088332;28;20049;-46
2021/10/23 04:39:18;;;;;;;12.07;6.30;;;;;;;;;;2089795;28;20052;-46
2021/10/23 04:40:20;;;;;;;10.60;6.35;;;;;;;;;;2088647;28;20304;-45
2021/10/23 04:41:21;;;;;;;12.35;6.88;;;;;;;;;;2089245;28;20131;-45
2021/10/23 04:42:22;;;;;;;12.35;6.25;;;;;;;;;;2089918;28;20128;-45
2021/10/23 04:43:23;;;;;;;17.02;6.85;;;;;;;;;;2090031;28;20193;-45
2021/10/23 04:44:24;;;;;;;11.27;5.88;;;;;;;;;;2088654;28;20524;-45
2021/10/23 04:45:25;;;;;;;12.23;6.30;;;;;;;;;;2089659;28;20466;-45
2021/10/23 04:46:26;;;;;;;13.90;6.82;;;;;;;;;;2087574;28;20285;-46
2021/10/23 04:47:27;;;;;;;15.98;6.93;;;;;;;;;;2089660;28;20080;-46
2021/10/23 04:48:28;;;;;;;12.03;6.67;;;;;;;;;;2089888;28;20071;-45
2021/10/23 04:49:29;;;;;;;12.18;7.18;;;;;;;;;;2087485;28;20159;-46
2021/10/23 04:50:30;;;;;;;14.40;6.87;;;;;;;;;;2089861;28;20048;-45
2021/10/23 04:51:31;;;;;;;12.15;7.45;;;;;;;;;;2089853;28;20135;-46
2021/10/23 04:52:32;;;;;;;14.35;7.20;;;;;;;;;;2087532;28;20498;-45
2021/10/23 04:53:33;;;;;;;13.45;7.30;;;;;;;;;;2081673;28;20055;-45
2021/10/23 04:54:35;;;;;;;14.93;6.47;;;;;;;;;;2081665;28;20053;-45
2021/10/23 04:55:36;;;;;;;15.88;6.47;;;;;;;;;;2088062;28;20524;-46
2021/10/23 04:56:37;;;;;;;20.77;7.55;;;;;;;;;;2089729;28;20109;-45
2021/10/23 04:57:42;;;;;;;19.38;8.07;;;;;;;;;;2089317;28;20044;-47
2021/10/23 04:58:43;;;;;;;14.88;7.10;;;;;;;;;;2087868;28;20132;-46
2021/10/23 04:59:44;;;;;;;16.50;7.30;;;;;;;;;;2089759;28;20051;-45
2021/10/23 05:00:45;;;;;;;18.48;7.63;;;;;;;;;;2089189;28;20118;-46
2021/10/23 05:01:46;;;;;;;16.07;7.07;;;;;;;;;;2087724;28;20064;-47
2021/10/23 05:02:47;;;;;;;14.55;6.72;;;;;;;;;;2088202;28;20132;-47
2021/10/23 05:03:48;;;;;;;13.45;6.65;;;;;;;;;;2088767;28;20053;-45
2021/10/23 05:04:49;;;;;;;12.48;7.35;;;;;;;;;;2087987;28;20045;-46
2021/10/23 05:05:50;;;;;;;15.00;6.72;;;;;;;;;;2089689;28;20114;-47
2021/10/23 05:06:51;;;;;;;16.17;7.00;;;;;;;;;;2088836;28;20069;-47
2021/10/23 05:07:52;;;;;;;19.13;7.03;;;;;;;;;;2088444;28;20072;-46
2021/10/23 05:08:53;;;;;;;18.50;7.23;;;;;;;;;;2089793;28;20120;-46
2021/10/23 05:09:54;;;;;;;18.60;8.30;;;;;;;;;;2088668;28;20365;-46
2021/10/23 05:10:56;;;;;;;17.27;8.43;;;;;;;;;;2088288;28;20069;-46
2021/10/23 05:11:57;;;;;;;22.30;9.75;;;;;;;;;;2089503;28;20513;-47
2021/10/23 05:12:58;;;;;;;21.05;9.93;;;;;;;;;;2088600;28;20553;-50
2021/10/23 05:13:59;;;;;;;20.88;10.00;;;;;;;;;;2088135;28;20056;-46
2021/10/23 05:15:00;;;;;;;23.80;11.45;;;;;;;;;;2089751;28;20124;-46
2021/10/23 05:16:01;;;;;;;21.77;10.57;;;;;;;;;;2087475;28;20052;-45
2021/10/23 05:17:02;;;;;;;20.83;9.77;;;;;;;;;;2088506;28;20044;-46
2021/10/23 05:18:03;;;;;;;20.20;10.20;;;;;;;;;;2089546;28;20132;-46
2021/10/23 05:19:04;;;;;;;13.48;7.88;;;;;;;;;;2087305;28;20361;-45
2021/10/23 05:20:05;;;;;;;18.88;8.40;;;;;;;;;;2089530;28;20505;-47
2021/10/23 05:21:06;;;;;;;17.77;8.15;;;;;;;;;;2089587;28;20120;-46
2021/10/23 05:22:07;;;;;;;22.35;7.97;;;;;;;;;;2089262;28;20045;-47
2021/10/23 05:23:08;;;;;;;13.30;7.25;;;;;;;;;;2088796;28;20056;-46
2021/10/23 05:24:09;;;;;;;15.95;7.03;;;;;;;;;;2089611;28;20063;-46
2021/10/23 05:25:11;;;;;;;17.13;7.80;;;;;;;;;;2086025;28;20041;-46
2021/10/23 05:26:13;;;;;;;14.15;6.68;;;;;;;;;;2089449;28;20328;-46
2021/10/23 05:27:14;;;;;;;;;;;;;;;;;;2089852;28;20060;-48
2021/10/23 05:28:15;;;;;;;14.80;6.97;;;;;;;;;;2087114;28;19964;-47
2021/10/23 05:29:16;;;;;;;16.67;7.45;;;;;;;;;;2089706;28;20079;-48
2021/10/23 05:30:17;;;;;;;15.45;7.30;;;;;;;;;;2088894;28;20067;-47
2021/10/23 05:31:20;;;;;;;18.17;7.45;;;;;;;;;;2087787;28;20147;-47
2021/10/23 05:32:21;;;;;;;15.68;7.43;;;;;;;;;;2089409;28;20045;-47
2021/10/23 05:33:22;;;;;;;17.83;7.95;;;;;;;;;;2090196;28;20060;-46
2021/10/23 05:34:23;;;;;;;32.50;8.30;;;;;;;;;;2087744;28;20487;-47
2021/10/23 05:35:24;;;;;;;16.92;8.65;;;;;;;;;;2089506;28;20277;-47
2021/10/23 05:36:25;;;;;;;16.05;8.10;;;;;;;;;;2088951;28;20106;-47
2021/10/23 05:37:29;;;;;;;18.60;7.40;;;;;;;;;;2087773;28;20441;-44
2021/10/23 05:38:30;;;;;;;13.25;6.65;;;;;;;;;;2089488;28;20056;-45
2021/10/23 05:39:31;;;;;;;14.73;7.75;;;;;;;;;;2089955;28;20044;-45
2021/10/23 05:40:32;;;;;;;16.58;8.43;;;;;;;;;;2088368;28;20497;-45
2021/10/23 05:41:34;;;;;;;17.63;7.57;;;;;;;;;;2089369;28;20045;-46
2021/10/23 05:42:35;;;;;;;22.67;8.40;;;;;;;;;;2087206;28;20116;-45
2021/10/23 05:43:36;;;;;;;18.63;8.33;;;;;;;;;;2088169;28;20041;-47
2021/10/23 05:44:37;;;;;;;19.38;8.40;;;;;;;;;;2089628;28;20123;-46
2021/10/23 05:45:38;;;;;;;20.05;8.23;;;;;;;;;;2088875;28;20106;-47
2021/10/23 05:46:39;;;;;;;23.45;9.77;;;;;;;;;;2089128;28;20059;-47
2021/10/23 05:47:40;;;;;;;23.10;8.90;;;;;;;;;;2089314;28;20045;-46
2021/10/23 05:48:41;;;;;;;23.75;9.40;;;;;;;;;;2088358;28;20053;-46
2021/10/23 05:49:42;;;;;;;19.58;9.13;;;;;;;;;;2089411;28;20049;-46
2021/10/23 05:50:43;;;;;;;20.85;10.38;;;;;;;;;;2089328;28;20531;-45
2021/10/23 05:51:44;;;;;;;26.00;10.35;;;;;;;;;;2086953;28;20135;-46
2021/10/23 05:52:45;;;;;;;24.57;9.43;;;;;;;;;;2089402;28;20120;-45
2021/10/23 05:53:46;;;;;;;26.58;9.43;;;;;;;;;;2088813;28;20554;-46
2021/10/23 05:54:47;;;;;;;18.13;8.50;;;;;;;;;;2087432;28;20057;-45
2021/10/23 05:55:48;;;;;;;19.58;9.25;;;;;;;;;;2089527;28;20128;-45
2021/10/23 05:56:50;;;;;;;19.10;8.52;;;;;;;;;;2088932;28;20124;-46
2021/10/23 05:57:51;;;;;;;11.38;7.65;;;;;;;;;;2087565;28;20045;-46
2021/10/23 05:58:58;;;;;;;14.23;7.60;;;;;;;;;;2089514;28;20470;-46
2021/10/23 06:00:04;;;;;;;17.70;8.25;;;;;;;;;;2088219;28;20143;-46
2021/10/23 06:01:06;;;;;;;14.68;7.45;;;;;;;;;;2087889;28;20053;-46
2021/10/23 06:02:22;;;;;;;16.35;6.82;;;;;;;;;;2089264;28;20080;-45